sensor_id;sensor_type;location;lat;lon;timestamp;P1;P2;P0
33948;PMS7003;20229;49.856;19.030;2023-03-21T00:00:09;106;101;92
33948;PMS7003;20229;49.856;19.030;2023-03-21T00:05:28;105;97;87
33948;PMS7003;20229;49.856;19.030;2023-03-21T00:10:44;108;102;93
33948;PMS7003;20229;49.856;19.030;2023-03-21T00:21:30;82;75;66
33948;PMS7003;20229;49.856;19.030;2023-03-21T00:26:50;95;90;79
33948;PMS7003;20229;49.856;19.030;2023-03-21T00:32:04;69;64;54
33948;PMS7003;20229;49.856;19.030;2023-03-21T00:37:18;67;55;47
33948;PMS7003;20229;49.856;19.030;2023-03-21T00:42:32;77;72;61
33948;PMS7003;20229;49.856;19.030;2023-03-21T00:47:46;64;57;49
33948;PMS7003;20229;49.856;19.030;2023-03-21T00:53:01;78;71;60
33948;PMS7003;20229;49.856;19.030;2023-03-21T00:58:16;79;75;63
33948;PMS7003;20229;49.856;19.030;2023-03-21T01:03:30;69;64;56
33948;PMS7003;20229;49.856;19.030;2023-03-21T01:08:51;75;68;59
33948;PMS7003;20229;49.856;19.030;2023-03-21T01:14:06;80;75;65
33948;PMS7003;20229;49.856;19.030;2023-03-21T01:19:21;62;50;45
33948;PMS7003;20229;49.856;19.030;2023-03-21T01:24:41;66;62;57
33948;PMS7003;20229;49.856;19.030;2023-03-21T01:29:55;59;50;45
33948;PMS7003;20229;49.856;19.030;2023-03-21T01:35:09;55;48;46
33948;PMS7003;20229;49.856;19.030;2023-03-21T01:40:24;53;43;39
33948;PMS7003;20229;49.856;19.030;2023-03-21T01:51:05;52;45;43
33948;PMS7003;20229;49.856;19.030;2023-03-21T01:56:38;58;53;50
33948;PMS7003;20229;49.856;19.030;2023-03-21T02:01:46;54;48;45
33948;PMS7003;20229;49.856;19.030;2023-03-21T02:07:06;56;49;46
33948;PMS7003;20229;49.856;19.030;2023-03-21T02:12:24;58;47;45
33948;PMS7003;20229;49.856;19.030;2023-03-21T02:17:42;19;17;15
33948;PMS7003;20229;49.856;19.030;2023-03-21T02:28:36;12;10;9
33948;PMS7003;20229;49.856;19.030;2023-03-21T02:50:53;64;55;54
33948;PMS7003;20229;49.856;19.030;2023-03-21T02:56:10;65;59;58
33948;PMS7003;20229;49.856;19.030;2023-03-21T03:01:24;66;60;59
33948;PMS7003;20229;49.856;19.030;2023-03-21T03:06:42;49;42;37
33948;PMS7003;20229;49.856;19.030;2023-03-21T03:12:08;40;34;28
33948;PMS7003;20229;49.856;19.030;2023-03-21T03:17:34;36;30;26
33948;PMS7003;20229;49.856;19.030;2023-03-21T03:22:55;39;35;32
33948;PMS7003;20229;49.856;19.030;2023-03-21T03:28:18;71;66;64
33948;PMS7003;20229;49.856;19.030;2023-03-21T03:33:36;50;43;40
33948;PMS7003;20229;49.856;19.030;2023-03-21T03:38:53;117;116;116
33948;PMS7003;20229;49.856;19.030;2023-03-21T03:44:10;125;125;124
33948;PMS7003;20229;49.856;19.030;2023-03-21T03:49:25;88;87;86
33948;PMS7003;20229;49.856;19.030;2023-03-21T03:54:45;88;86;85
33948;PMS7003;20229;49.856;19.030;2023-03-21T04:00:01;85;83;82
33948;PMS7003;20229;49.856;19.030;2023-03-21T04:05:24;85;83;82
33948;PMS7003;20229;49.856;19.030;2023-03-21T04:10:41;76;75;74
33948;PMS7003;20229;49.856;19.030;2023-03-21T04:15:56;70;70;69
33948;PMS7003;20229;49.856;19.030;2023-03-21T04:21:11;69;69;68
33948;PMS7003;20229;49.856;19.030;2023-03-21T04:26:26;65;60;58
33948;PMS7003;20229;49.856;19.030;2023-03-21T04:31:46;61;55;53
33948;PMS7003;20229;49.856;19.030;2023-03-21T04:37:02;71;70;69
33948;PMS7003;20229;49.856;19.030;2023-03-21T04:42:23;65;58;56
33948;PMS7003;20229;49.856;19.030;2023-03-21T04:47:37;68;66;66
33948;PMS7003;20229;49.856;19.030;2023-03-21T04:52:51;76;75;74
33948;PMS7003;20229;49.856;19.030;2023-03-21T04:58:05;73;72;70
33948;PMS7003;20229;49.856;19.030;2023-03-21T05:03:19;55;47;44
33948;PMS7003;20229;49.856;19.030;2023-03-21T05:08:34;56;49;47
33948;PMS7003;20229;49.856;19.030;2023-03-21T05:13:50;60;50;47
33948;PMS7003;20229;49.856;19.030;2023-03-21T05:19:04;78;76;75
33948;PMS7003;20229;49.856;19.030;2023-03-21T05:24:19;89;87;85
33948;PMS7003;20229;49.856;19.030;2023-03-21T05:29:34;78;75;73
33948;PMS7003;20229;49.856;19.030;2023-03-21T05:34:48;68;63;61
33948;PMS7003;20229;49.856;19.030;2023-03-21T05:40:03;60;54;52
33948;PMS7003;20229;49.856;19.030;2023-03-21T05:45:19;75;74;72
33948;PMS7003;20229;49.856;19.030;2023-03-21T05:50:33;64;62;60
33948;PMS7003;20229;49.856;19.030;2023-03-21T05:55:47;74;73;71
33948;PMS7003;20229;49.856;19.030;2023-03-21T06:01:00;68;64;62
33948;PMS7003;20229;49.856;19.030;2023-03-21T06:06:14;80;79;77
33948;PMS7003;20229;49.856;19.030;2023-03-21T06:11:29;76;74;72
33948;PMS7003;20229;49.856;19.030;2023-03-21T06:16:46;90;89;87
33948;PMS7003;20229;49.856;19.030;2023-03-21T06:22:00;104;104;102
33948;PMS7003;20229;49.856;19.030;2023-03-21T06:27:14;64;58;54
33948;PMS7003;20229;49.856;19.030;2023-03-21T06:32:29;53;48;43
33948;PMS7003;20229;49.856;19.030;2023-03-21T06:37:43;66;63;61
33948;PMS7003;20229;49.856;19.030;2023-03-21T06:43:01;72;71;68
33948;PMS7003;20229;49.856;19.030;2023-03-21T06:48:15;74;71;68
33948;PMS7003;20229;49.856;19.030;2023-03-21T06:53:29;62;56;52
33948;PMS7003;20229;49.856;19.030;2023-03-21T06:58:45;70;66;63
33948;PMS7003;20229;49.856;19.030;2023-03-21T07:03:59;62;52;50
33948;PMS7003;20229;49.856;19.030;2023-03-21T07:09:13;48;39;32
33948;PMS7003;20229;49.856;19.030;2023-03-21T07:14:31;57;48;40
33948;PMS7003;20229;49.856;19.030;2023-03-21T07:19:47;121;120;117
33948;PMS7003;20229;49.856;19.030;2023-03-21T07:25:01;58;48;38
33948;PMS7003;20229;49.856;19.030;2023-03-21T07:30:15;29;25;17
33948;PMS7003;20229;49.856;19.030;2023-03-21T07:35:29;35;30;22
33948;PMS7003;20229;49.856;19.030;2023-03-21T07:40:44;38;31;22
33948;PMS7003;20229;49.856;19.030;2023-03-21T07:45:59;28;25;19
33948;PMS7003;20229;49.856;19.030;2023-03-21T07:51:13;75;64;61
33948;PMS7003;20229;49.856;19.030;2023-03-21T07:56:27;60;49;43
33948;PMS7003;20229;49.856;19.030;2023-03-21T08:01:41;62;53;47
33948;PMS7003;20229;49.856;19.030;2023-03-21T08:06:55;64;58;53
33948;PMS7003;20229;49.856;19.030;2023-03-21T08:12:09;106;103;99
33948;PMS7003;20229;49.856;19.030;2023-03-21T08:17:23;108;104;100
33948;PMS7003;20229;49.856;19.030;2023-03-21T08:22:38;72;65;60
33948;PMS7003;20229;49.856;19.030;2023-03-21T08:27:53;59;51;44
33948;PMS7003;20229;49.856;19.030;2023-03-21T08:33:07;53;43;34
33948;PMS7003;20229;49.856;19.030;2023-03-21T08:38:22;56;45;36
33948;PMS7003;20229;49.856;19.030;2023-03-21T08:43:36;58;46;39
33948;PMS7003;20229;49.856;19.030;2023-03-21T08:48:50;54;43;34
33948;PMS7003;20229;49.856;19.030;2023-03-21T08:54:04;48;40;30
33948;PMS7003;20229;49.856;19.030;2023-03-21T08:59:19;47;39;30
33948;PMS7003;20229;49.856;19.030;2023-03-21T09:04:33;43;35;26
33948;PMS7003;20229;49.856;19.030;2023-03-21T09:09:48;46;38;29
33948;PMS7003;20229;49.856;19.030;2023-03-21T09:15:06;47;38;29
33948;PMS7003;20229;49.856;19.030;2023-03-21T09:20:22;43;34;26
33948;PMS7003;20229;49.856;19.030;2023-03-21T09:25:45;50;41;31
33948;PMS7003;20229;49.856;19.030;2023-03-21T09:31:20;52;42;33
33948;PMS7003;20229;49.856;19.030;2023-03-21T09:36:46;54;44;35
33948;PMS7003;20229;49.856;19.030;2023-03-21T09:42:08;47;39;30
33948;PMS7003;20229;49.856;19.030;2023-03-21T09:47:33;46;37;27
33948;PMS7003;20229;49.856;19.030;2023-03-21T09:53:10;45;36;28
33948;PMS7003;20229;49.856;19.030;2023-03-21T09:58:35;49;39;28
33948;PMS7003;20229;49.856;19.030;2023-03-21T10:03:55;44;36;27
33948;PMS7003;20229;49.856;19.030;2023-03-21T10:09:15;38;33;26
33948;PMS7003;20229;49.856;19.030;2023-03-21T10:14:38;45;37;28
33948;PMS7003;20229;49.856;19.030;2023-03-21T10:19:57;46;38;28
33948;PMS7003;20229;49.856;19.030;2023-03-21T10:25:54;46;38;29
33948;PMS7003;20229;49.856;19.030;2023-03-21T10:31:13;45;36;28
33948;PMS7003;20229;49.856;19.030;2023-03-21T10:36:31;54;44;34
33948;PMS7003;20229;49.856;19.030;2023-03-21T10:41:46;49;40;30
33948;PMS7003;20229;49.856;19.030;2023-03-21T10:47:04;51;41;31
33948;PMS7003;20229;49.856;19.030;2023-03-21T10:52:21;55;44;37
33948;PMS7003;20229;49.856;19.030;2023-03-21T10:57:39;56;43;35
33948;PMS7003;20229;49.856;19.030;2023-03-21T11:02:53;54;43;34
33948;PMS7003;20229;49.856;19.030;2023-03-21T11:08:12;62;52;45
33948;PMS7003;20229;49.856;19.030;2023-03-21T11:13:33;56;46;37
33948;PMS7003;20229;49.856;19.030;2023-03-21T11:18:51;64;53;47
33948;PMS7003;20229;49.856;19.030;2023-03-21T11:24:13;63;52;47
33948;PMS7003;20229;49.856;19.030;2023-03-21T11:35:27;65;54;46
33948;PMS7003;20229;49.856;19.030;2023-03-21T11:46:07;62;52;44
33948;PMS7003;20229;49.856;19.030;2023-03-21T11:56:53;65;52;44
33948;PMS7003;20229;49.856;19.030;2023-03-21T12:07:50;62;51;42
33948;PMS7003;20229;49.856;19.030;2023-03-21T12:13:43;61;48;39
33948;PMS7003;20229;49.856;19.030;2023-03-21T12:24:36;57;47;39
33948;PMS7003;20229;49.856;19.030;2023-03-21T12:30:01;58;47;38
33948;PMS7003;20229;49.856;19.030;2023-03-21T12:35:40;58;50;42
33948;PMS7003;20229;49.856;19.030;2023-03-21T12:52:14;73;65;58
33948;PMS7003;20229;49.856;19.030;2023-03-21T12:57:36;80;75;68
33948;PMS7003;20229;49.856;19.030;2023-03-21T13:02:57;88;83;76
33948;PMS7003;20229;49.856;19.030;2023-03-21T13:08:18;82;77;70
33948;PMS7003;20229;49.856;19.030;2023-03-21T13:13:38;80;77;72
33948;PMS7003;20229;49.856;19.030;2023-03-21T13:19:06;81;80;76
33948;PMS7003;20229;49.856;19.030;2023-03-21T13:30:00;73;68;63
33948;PMS7003;20229;49.856;19.030;2023-03-21T13:35:32;83;78;73
33948;PMS7003;20229;49.856;19.030;2023-03-21T13:41:18;87;83;75
33948;PMS7003;20229;49.856;19.030;2023-03-21T13:46:42;80;75;70
33948;PMS7003;20229;49.856;19.030;2023-03-21T14:08:18;101;97;90
33948;PMS7003;20229;49.856;19.030;2023-03-21T14:13:33;100;98;91
33948;PMS7003;20229;49.856;19.030;2023-03-21T14:18:58;96;93;87
33948;PMS7003;20229;49.856;19.030;2023-03-21T14:24:12;120;114;108
33948;PMS7003;20229;49.856;19.030;2023-03-21T14:29:29;93;90;86
33948;PMS7003;20229;49.856;19.030;2023-03-21T14:34:50;88;83;75
33948;PMS7003;20229;49.856;19.030;2023-03-21T14:45:33;70;61;54
33948;PMS7003;20229;49.856;19.030;2023-03-21T14:50:51;63;54;47
33948;PMS7003;20229;49.856;19.030;2023-03-21T15:01:33;60;48;40
33948;PMS7003;20229;49.856;19.030;2023-03-21T15:06:52;67;52;44
33948;PMS7003;20229;49.856;19.030;2023-03-21T15:12:10;60;48;38
33948;PMS7003;20229;49.856;19.030;2023-03-21T15:17:27;65;51;38
33948;PMS7003;20229;49.856;19.030;2023-03-21T15:22:44;49;40;29
33948;PMS7003;20229;49.856;19.030;2023-03-21T15:28:06;51;41;30
33948;PMS7003;20229;49.856;19.030;2023-03-21T15:33:23;51;40;29
33948;PMS7003;20229;49.856;19.030;2023-03-21T15:38:40;52;40;30
33948;PMS7003;20229;49.856;19.030;2023-03-21T15:44:10;54;43;31
33948;PMS7003;20229;49.856;19.030;2023-03-21T15:49:31;56;45;34
33948;PMS7003;20229;49.856;19.030;2023-03-21T15:54:49;51;41;30
33948;PMS7003;20229;49.856;19.030;2023-03-21T16:00:17;56;44;32
33948;PMS7003;20229;49.856;19.030;2023-03-21T16:16:54;66;51;41
33948;PMS7003;20229;49.856;19.030;2023-03-21T16:22:10;62;51;41
33948;PMS7003;20229;49.856;19.030;2023-03-21T16:27:24;68;59;51
33948;PMS7003;20229;49.856;19.030;2023-03-21T16:32:38;60;47;36
33948;PMS7003;20229;49.856;19.030;2023-03-21T16:37:52;65;54;45
33948;PMS7003;20229;49.856;19.030;2023-03-21T16:43:07;67;57;48
33948;PMS7003;20229;49.856;19.030;2023-03-21T16:48:21;66;55;47
33948;PMS7003;20229;49.856;19.030;2023-03-21T16:53:35;68;59;49
33948;PMS7003;20229;49.856;19.030;2023-03-21T16:58:48;64;52;40
33948;PMS7003;20229;49.856;19.030;2023-03-21T17:04:04;70;57;45
33948;PMS7003;20229;49.856;19.030;2023-03-21T17:09:20;57;45;34
33948;PMS7003;20229;49.856;19.030;2023-03-21T17:14:35;62;48;38
33948;PMS7003;20229;49.856;19.030;2023-03-21T17:19:49;62;49;38
33948;PMS7003;20229;49.856;19.030;2023-03-21T17:25:03;55;44;33
33948;PMS7003;20229;49.856;19.030;2023-03-21T17:30:25;54;42;30
33948;PMS7003;20229;49.856;19.030;2023-03-21T17:35:41;60;49;38
33948;PMS7003;20229;49.856;19.030;2023-03-21T17:40:54;65;51;39
33948;PMS7003;20229;49.856;19.030;2023-03-21T17:46:13;67;54;42
33948;PMS7003;20229;49.856;19.030;2023-03-21T17:51:28;56;44;32
33948;PMS7003;20229;49.856;19.030;2023-03-21T17:56:42;52;41;29
33948;PMS7003;20229;49.856;19.030;2023-03-21T18:01:58;83;75;62
33948;PMS7003;20229;49.856;19.030;2023-03-21T18:07:12;80;71;56
33948;PMS7003;20229;49.856;19.030;2023-03-21T18:12:28;68;50;38
33948;PMS7003;20229;49.856;19.030;2023-03-21T18:17:43;74;63;52
33948;PMS7003;20229;49.856;19.030;2023-03-21T18:22:56;132;113;82
33948;PMS7003;20229;49.856;19.030;2023-03-21T18:28:10;111;100;76
33948;PMS7003;20229;49.856;19.030;2023-03-21T18:33:24;127;113;88
33948;PMS7003;20229;49.856;19.030;2023-03-21T18:38:39;120;111;86
33948;PMS7003;20229;49.856;19.030;2023-03-21T18:43:54;86;77;62
33948;PMS7003;20229;49.856;19.030;2023-03-21T18:49:09;94;85;65
33948;PMS7003;20229;49.856;19.030;2023-03-21T18:54:23;75;64;52
33948;PMS7003;20229;49.856;19.030;2023-03-21T18:59:38;81;73;60
33948;PMS7003;20229;49.856;19.030;2023-03-21T19:04:53;89;78;60
33948;PMS7003;20229;49.856;19.030;2023-03-21T19:10:11;75;65;51
33948;PMS7003;20229;49.856;19.030;2023-03-21T19:15:25;94;80;61
33948;PMS7003;20229;49.856;19.030;2023-03-21T19:20:43;86;76;59
33948;PMS7003;20229;49.856;19.030;2023-03-21T19:25:58;86;72;52
33948;PMS7003;20229;49.856;19.030;2023-03-21T19:31:12;62;46;32
33948;PMS7003;20229;49.856;19.030;2023-03-21T19:36:26;75;62;44
33948;PMS7003;20229;49.856;19.030;2023-03-21T19:41:40;81;69;51
33948;PMS7003;20229;49.856;19.030;2023-03-21T19:46:54;85;72;54
33948;PMS7003;20229;49.856;19.030;2023-03-21T19:52:09;119;111;90
33948;PMS7003;20229;49.856;19.030;2023-03-21T19:57:25;115;103;82
33948;PMS7003;20229;49.856;19.030;2023-03-21T20:02:39;126;112;89
33948;PMS7003;20229;49.856;19.030;2023-03-21T20:07:55;106;98;75
33948;PMS7003;20229;49.856;19.030;2023-03-21T20:13:09;105;96;74
33948;PMS7003;20229;49.856;19.030;2023-03-21T20:18:23;87;72;51
33948;PMS7003;20229;49.856;19.030;2023-03-21T20:23:37;104;93;67
33948;PMS7003;20229;49.856;19.030;2023-03-21T20:28:51;102;95;72
33948;PMS7003;20229;49.856;19.030;2023-03-21T20:34:09;128;117;91
33948;PMS7003;20229;49.856;19.030;2023-03-21T20:39:24;138;134;114
33948;PMS7003;20229;49.856;19.030;2023-03-21T20:44:39;147;136;114
33948;PMS7003;20229;49.856;19.030;2023-03-21T20:49:54;133;125;106
33948;PMS7003;20229;49.856;19.030;2023-03-21T20:55:13;170;161;140
33948;PMS7003;20229;49.856;19.030;2023-03-21T21:00:27;166;162;145
33948;PMS7003;20229;49.856;19.030;2023-03-21T21:05:44;211;202;182
33948;PMS7003;20229;49.856;19.030;2023-03-21T21:11:00;198;190;169
33948;PMS7003;20229;49.856;19.030;2023-03-21T21:16:15;174;165;145
33948;PMS7003;20229;49.856;19.030;2023-03-21T21:21:29;133;125;106
33948;PMS7003;20229;49.856;19.030;2023-03-21T21:26:45;110;102;85
33948;PMS7003;20229;49.856;19.030;2023-03-21T21:31:59;81;72;56
33948;PMS7003;20229;49.856;19.030;2023-03-21T21:37:14;87;79;62
33948;PMS7003;20229;49.856;19.030;2023-03-21T21:42:28;91;79;62
33948;PMS7003;20229;49.856;19.030;2023-03-21T21:47:43;95;86;67
33948;PMS7003;20229;49.856;19.030;2023-03-21T21:52:58;106;94;78
33948;PMS7003;20229;49.856;19.030;2023-03-21T21:58:16;103;96;79
33948;PMS7003;20229;49.856;19.030;2023-03-21T22:03:31;106;96;77
33948;PMS7003;20229;49.856;19.030;2023-03-21T22:09:27;105;98;79
33948;PMS7003;20229;49.856;19.030;2023-03-21T22:14:40;112;101;84
33948;PMS7003;20229;49.856;19.030;2023-03-21T22:19:54;72;59;45
33948;PMS7003;20229;49.856;19.030;2023-03-21T22:25:09;71;59;46
33948;PMS7003;20229;49.856;19.030;2023-03-21T22:30:25;65;53;39
33948;PMS7003;20229;49.856;19.030;2023-03-21T22:35:39;68;56;41
33948;PMS7003;20229;49.856;19.030;2023-03-21T22:40:57;46;36;21
33948;PMS7003;20229;49.856;19.030;2023-03-21T22:46:12;80;66;53
33948;PMS7003;20229;49.856;19.030;2023-03-21T22:51:26;81;70;58
33948;PMS7003;20229;49.856;19.030;2023-03-21T22:56:40;91;80;66
33948;PMS7003;20229;49.856;19.030;2023-03-21T23:01:55;128;124;111
33948;PMS7003;20229;49.856;19.030;2023-03-21T23:07:09;140;131;122
33948;PMS7003;20229;49.856;19.030;2023-03-21T23:12:23;134;127;116
33948;PMS7003;20229;49.856;19.030;2023-03-21T23:17:37;111;103;91
33948;PMS7003;20229;49.856;19.030;2023-03-21T23:22:53;102;92;80
33948;PMS7003;20229;49.856;19.030;2023-03-21T23:28:07;107;95;82
33948;PMS7003;20229;49.856;19.030;2023-03-21T23:33:21;88;77;65
33948;PMS7003;20229;49.856;19.030;2023-03-21T23:38:35;85;75;63
33948;PMS7003;20229;49.856;19.030;2023-03-21T23:43:49;88;77;63
33948;PMS7003;20229;49.856;19.030;2023-03-21T23:49:03;98;93;75
33948;PMS7003;20229;49.856;19.030;2023-03-21T23:54:17;121;112;95
33948;PMS7003;20229;49.856;19.030;2023-03-21T23:59:31;149;142;121
